Terminal Aerodrome Forecast
Issued by NWS Hastings, NE

Home | Current Version | Previous Version | Text Only | Print | Product List | Glossary On
Versions: 1 2 3 4 5 6 7 8 9 10 11 12 13 14 15 16 17 18 19 20
000
FTUS43 KGID 240802 AAB
TAFGRI
TAF AMD
KGRI 240802Z 2408/2506 36013G20KT 6SM -RA VCTS BKN015 OVC070CB
      TEMPO 2408/2409 VRB06KT 3SM BR BKN009
     FM240900 32014G20KT P6SM SCT020 OVC090
     FM241600 34020G30KT P6SM FEW250
     FM250000 30008KT P6SM SKC=

USA.gov is the U.S. government's official web portal to all federal, state and local government web resources and services.